sensor_id;sensor_type;location;lat;lon;timestamp;temperature;humidity
702;DHT22;334;48.808;9.222;2022-12-29T00:00:42;11.70;1.00
702;DHT22;334;48.808;9.222;2022-12-29T00:01:44;11.70;1.00
702;DHT22;334;48.808;9.222;2022-12-29T00:02:47;11.70;1.00
702;DHT22;334;48.808;9.222;2022-12-29T00:03:49;11.70;1.00
702;DHT22;334;48.808;9.222;2022-12-29T00:04:52;11.80;1.00
702;DHT22;334;48.808;9.222;2022-12-29T00:05:57;11.50;1.00
702;DHT22;334;48.808;9.222;2022-12-29T00:07:00;11.80;1.00
702;DHT22;334;48.808;9.222;2022-12-29T00:08:02;11.80;1.00
702;DHT22;334;48.808;9.222;2022-12-29T00:09:03;11.80;1.00
702;DHT22;334;48.808;9.222;2022-12-29T00:10:06;11.90;1.00
702;DHT22;334;48.808;9.222;2022-12-29T00:11:15;11.90;1.00
702;DHT22;334;48.808;9.222;2022-12-29T00:12:17;11.90;1.00
702;DHT22;334;48.808;9.222;2022-12-29T00:13:21;11.90;1.00
702;DHT22;334;48.808;9.222;2022-12-29T00:14:42;11.90;1.00
702;DHT22;334;48.808;9.222;2022-12-29T00:16:02;11.90;1.00
702;DHT22;334;48.808;9.222;2022-12-29T00:17:06;12.00;1.00
702;DHT22;334;48.808;9.222;2022-12-29T00:18:10;11.90;1.00
702;DHT22;334;48.808;9.222;2022-12-29T00:19:14;12.00;1.00
702;DHT22;334;48.808;9.222;2022-12-29T00:21:03;12.00;1.00
702;DHT22;334;48.808;9.222;2022-12-29T00:22:27;12.00;1.00
702;DHT22;334;48.808;9.222;2022-12-29T00:23:47;12.00;1.00
702;DHT22;334;48.808;9.222;2022-12-29T00:25:10;12.00;1.00
702;DHT22;334;48.808;9.222;2022-12-29T00:26:31;12.00;1.00
702;DHT22;334;48.808;9.222;2022-12-29T00:27:52;12.00;1.00
702;DHT22;334;48.808;9.222;2022-12-29T00:29:14;12.00;1.00
702;DHT22;334;48.808;9.222;2022-12-29T00:30:35;12.00;1.00
702;DHT22;334;48.808;9.222;2022-12-29T00:31:56;12.00;1.00
702;DHT22;334;48.808;9.222;2022-12-29T00:33:20;12.00;1.00
702;DHT22;334;48.808;9.222;2022-12-29T00:34:41;12.00;1.00
702;DHT22;334;48.808;9.222;2022-12-29T00:36:28;12.00;1.00
702;DHT22;334;48.808;9.222;2022-12-29T00:37:36;12.00;1.00
702;DHT22;334;48.808;9.222;2022-12-29T00:39:00;12.00;1.00
702;DHT22;334;48.808;9.222;2022-12-29T00:40:21;12.00;1.00
702;DHT22;334;48.808;9.222;2022-12-29T00:41:41;12.00;1.00
702;DHT22;334;48.808;9.222;2022-12-29T00:43:02;12.00;1.00
702;DHT22;334;48.808;9.222;2022-12-29T00:44:24;12.10;1.00
702;DHT22;334;48.808;9.222;2022-12-29T00:45:26;12.10;1.00
702;DHT22;334;48.808;9.222;2022-12-29T00:46:28;12.00;1.00
702;DHT22;334;48.808;9.222;2022-12-29T00:47:29;12.00;1.00
702;DHT22;334;48.808;9.222;2022-12-29T00:48:31;12.10;1.00
702;DHT22;334;48.808;9.222;2022-12-29T00:49:51;12.10;1.00
702;DHT22;334;48.808;9.222;2022-12-29T00:50:56;12.10;1.00
702;DHT22;334;48.808;9.222;2022-12-29T00:52:09;12.10;1.00
702;DHT22;334;48.808;9.222;2022-12-29T00:53:14;12.20;1.00
702;DHT22;334;48.808;9.222;2022-12-29T00:54:16;12.10;1.00
702;DHT22;334;48.808;9.222;2022-12-29T00:55:18;12.20;1.00
702;DHT22;334;48.808;9.222;2022-12-29T00:56:23;12.20;1.00
702;DHT22;334;48.808;9.222;2022-12-29T00:57:24;12.20;1.00
702;DHT22;334;48.808;9.222;2022-12-29T00:58:29;12.20;1.00
702;DHT22;334;48.808;9.222;2022-12-29T00:59:32;12.20;1.00
702;DHT22;334;48.808;9.222;2022-12-29T01:00:34;12.20;1.00
702;DHT22;334;48.808;9.222;2022-12-29T01:01:38;12.20;1.00
702;DHT22;334;48.808;9.222;2022-12-29T01:02:41;12.30;1.00
702;DHT22;334;48.808;9.222;2022-12-29T01:03:44;12.30;1.00
702;DHT22;334;48.808;9.222;2022-12-29T01:04:46;12.30;1.00
702;DHT22;334;48.808;9.222;2022-12-29T01:05:48;12.30;1.00
702;DHT22;334;48.808;9.222;2022-12-29T01:06:50;12.30;1.00
702;DHT22;334;48.808;9.222;2022-12-29T01:07:52;12.30;1.00
702;DHT22;334;48.808;9.222;2022-12-29T01:08:55;12.30;1.00
702;DHT22;334;48.808;9.222;2022-12-29T01:10:15;12.40;1.00
702;DHT22;334;48.808;9.222;2022-12-29T01:11:18;12.40;1.00
702;DHT22;334;48.808;9.222;2022-12-29T01:12:20;12.40;1.00
702;DHT22;334;48.808;9.222;2022-12-29T01:13:42;12.40;1.00
702;DHT22;334;48.808;9.222;2022-12-29T01:14:46;12.40;1.00
702;DHT22;334;48.808;9.222;2022-12-29T01:15:51;12.30;1.00
702;DHT22;334;48.808;9.222;2022-12-29T01:16:53;12.40;1.00
702;DHT22;334;48.808;9.222;2022-12-29T01:17:55;12.40;1.00
702;DHT22;334;48.808;9.222;2022-12-29T01:18:57;12.40;1.00
702;DHT22;334;48.808;9.222;2022-12-29T01:20:02;12.40;1.00
702;DHT22;334;48.808;9.222;2022-12-29T01:21:11;12.30;1.00
702;DHT22;334;48.808;9.222;2022-12-29T01:22:14;12.40;1.00
702;DHT22;334;48.808;9.222;2022-12-29T01:23:18;12.30;1.00
702;DHT22;334;48.808;9.222;2022-12-29T01:24:21;12.40;1.00
702;DHT22;334;48.808;9.222;2022-12-29T01:25:23;12.40;1.00
702;DHT22;334;48.808;9.222;2022-12-29T01:26:28;12.30;1.00
702;DHT22;334;48.808;9.222;2022-12-29T01:27:30;12.30;1.00
702;DHT22;334;48.808;9.222;2022-12-29T01:28:34;12.30;1.00
702;DHT22;334;48.808;9.222;2022-12-29T01:29:35;12.30;1.00
702;DHT22;334;48.808;9.222;2022-12-29T01:30:37;12.30;1.00
702;DHT22;334;48.808;9.222;2022-12-29T01:31:39;12.30;1.00
702;DHT22;334;48.808;9.222;2022-12-29T01:32:41;12.30;1.00
702;DHT22;334;48.808;9.222;2022-12-29T01:33:44;12.30;1.00
702;DHT22;334;48.808;9.222;2022-12-29T01:34:46;12.30;1.00
702;DHT22;334;48.808;9.222;2022-12-29T01:35:48;12.30;1.00
702;DHT22;334;48.808;9.222;2022-12-29T01:36:50;12.30;1.00
702;DHT22;334;48.808;9.222;2022-12-29T01:37:53;12.30;1.00
702;DHT22;334;48.808;9.222;2022-12-29T01:38:55;12.40;1.00
702;DHT22;334;48.808;9.222;2022-12-29T01:39:58;12.40;1.00
702;DHT22;334;48.808;9.222;2022-12-29T01:40:59;12.40;1.00
702;DHT22;334;48.808;9.222;2022-12-29T01:42:02;12.40;1.00
702;DHT22;334;48.808;9.222;2022-12-29T01:43:07;12.40;1.00
702;DHT22;334;48.808;9.222;2022-12-29T01:44:48;12.40;1.00
702;DHT22;334;48.808;9.222;2022-12-29T01:45:53;12.40;1.00
702;DHT22;334;48.808;9.222;2022-12-29T01:46:55;12.40;1.00
702;DHT22;334;48.808;9.222;2022-12-29T01:48:04;12.40;1.00
702;DHT22;334;48.808;9.222;2022-12-29T01:49:19;12.40;1.00
702;DHT22;334;48.808;9.222;2022-12-29T01:50:39;12.40;1.00
702;DHT22;334;48.808;9.222;2022-12-29T01:53:01;12.30;1.00
702;DHT22;334;48.808;9.222;2022-12-29T01:54:09;12.30;1.00
702;DHT22;334;48.808;9.222;2022-12-29T01:55:13;12.30;1.00
702;DHT22;334;48.808;9.222;2022-12-29T01:56:17;12.50;1.00
702;DHT22;334;48.808;9.222;2022-12-29T01:57:25;12.30;1.00
702;DHT22;334;48.808;9.222;2022-12-29T01:58:31;12.30;1.00
702;DHT22;334;48.808;9.222;2022-12-29T01:59:38;12.30;1.00
702;DHT22;334;48.808;9.222;2022-12-29T02:00:41;12.30;1.00
702;DHT22;334;48.808;9.222;2022-12-29T02:01:44;12.30;1.00
702;DHT22;334;48.808;9.222;2022-12-29T02:02:54;12.30;1.00
702;DHT22;334;48.808;9.222;2022-12-29T02:03:56;12.30;1.00
702;DHT22;334;48.808;9.222;2022-12-29T02:04:59;12.30;1.00
702;DHT22;334;48.808;9.222;2022-12-29T02:06:14;12.30;1.00
702;DHT22;334;48.808;9.222;2022-12-29T02:07:21;12.30;1.00
702;DHT22;334;48.808;9.222;2022-12-29T02:08:27;12.30;1.00
702;DHT22;334;48.808;9.222;2022-12-29T02:09:30;12.30;1.00
702;DHT22;334;48.808;9.222;2022-12-29T02:10:34;12.30;1.00
702;DHT22;334;48.808;9.222;2022-12-29T02:11:36;12.30;1.00
702;DHT22;334;48.808;9.222;2022-12-29T02:12:40;12.30;1.00
702;DHT22;334;48.808;9.222;2022-12-29T02:13:42;12.30;1.00
702;DHT22;334;48.808;9.222;2022-12-29T02:14:45;12.30;1.00
702;DHT22;334;48.808;9.222;2022-12-29T02:17:17;12.30;1.00
702;DHT22;334;48.808;9.222;2022-12-29T02:22:31;12.30;1.00
702;DHT22;334;48.808;9.222;2022-12-29T02:27:31;12.20;1.00
702;DHT22;334;48.808;9.222;2022-12-29T02:33:13;12.20;1.00
702;DHT22;334;48.808;9.222;2022-12-29T02:34:08;12.10;1.00
702;DHT22;334;48.808;9.222;2022-12-29T02:35:16;12.20;1.00
702;DHT22;334;48.808;9.222;2022-12-29T02:36:46;12.10;1.00
702;DHT22;334;48.808;9.222;2022-12-29T02:39:38;12.10;1.00
702;DHT22;334;48.808;9.222;2022-12-29T02:40:56;12.10;1.00
702;DHT22;334;48.808;9.222;2022-12-29T02:43:51;12.10;1.00
702;DHT22;334;48.808;9.222;2022-12-29T02:47:29;12.10;1.00
702;DHT22;334;48.808;9.222;2022-12-29T02:48:43;12.10;1.00
702;DHT22;334;48.808;9.222;2022-12-29T02:51:09;12.30;1.00
702;DHT22;334;48.808;9.222;2022-12-29T02:52:17;12.20;1.00
702;DHT22;334;48.808;9.222;2022-12-29T02:53:23;12.20;1.00
702;DHT22;334;48.808;9.222;2022-12-29T02:54:47;12.20;1.00
702;DHT22;334;48.808;9.222;2022-12-29T02:55:49;12.20;1.00
702;DHT22;334;48.808;9.222;2022-12-29T02:56:53;12.20;1.00
702;DHT22;334;48.808;9.222;2022-12-29T02:58:16;12.20;1.00
702;DHT22;334;48.808;9.222;2022-12-29T02:59:20;12.20;1.00
702;DHT22;334;48.808;9.222;2022-12-29T03:00:24;12.30;1.00
702;DHT22;334;48.808;9.222;2022-12-29T03:03:32;12.30;1.00
702;DHT22;334;48.808;9.222;2022-12-29T03:04:39;12.40;1.00
702;DHT22;334;48.808;9.222;2022-12-29T03:07:21;12.40;1.00
702;DHT22;334;48.808;9.222;2022-12-29T03:08:35;12.40;1.00
702;DHT22;334;48.808;9.222;2022-12-29T03:11:08;12.50;1.00
702;DHT22;334;48.808;9.222;2022-12-29T03:12:47;12.50;1.00
702;DHT22;334;48.808;9.222;2022-12-29T03:14:17;12.50;1.00
702;DHT22;334;48.808;9.222;2022-12-29T03:15:54;12.60;1.00
702;DHT22;334;48.808;9.222;2022-12-29T03:17:19;12.60;1.00
702;DHT22;334;48.808;9.222;2022-12-29T03:20:18;12.60;1.00
702;DHT22;334;48.808;9.222;2022-12-29T03:22:58;12.70;1.00
702;DHT22;334;48.808;9.222;2022-12-29T03:24:02;12.80;1.00
702;DHT22;334;48.808;9.222;2022-12-29T03:26:10;12.80;1.00
702;DHT22;334;48.808;9.222;2022-12-29T03:27:18;12.90;1.00
702;DHT22;334;48.808;9.222;2022-12-29T03:28:24;12.90;1.00
702;DHT22;334;48.808;9.222;2022-12-29T03:29:31;12.90;1.00
702;DHT22;334;48.808;9.222;2022-12-29T03:30:36;12.90;1.00
702;DHT22;334;48.808;9.222;2022-12-29T03:31:42;12.90;1.00
702;DHT22;334;48.808;9.222;2022-12-29T03:32:54;13.00;1.00
702;DHT22;334;48.808;9.222;2022-12-29T03:33:57;13.00;1.00
702;DHT22;334;48.808;9.222;2022-12-29T03:35:00;13.00;1.00
702;DHT22;334;48.808;9.222;2022-12-29T03:36:07;13.00;1.00
702;DHT22;334;48.808;9.222;2022-12-29T03:37:16;13.00;1.00
702;DHT22;334;48.808;9.222;2022-12-29T03:39:42;13.00;1.00
702;DHT22;334;48.808;9.222;2022-12-29T03:40:48;13.00;1.00
702;DHT22;334;48.808;9.222;2022-12-29T03:41:56;13.10;1.00
702;DHT22;334;48.808;9.222;2022-12-29T03:43:02;13.10;1.00
702;DHT22;334;48.808;9.222;2022-12-29T03:44:08;13.10;1.00
702;DHT22;334;48.808;9.222;2022-12-29T03:45:10;13.10;1.00
702;DHT22;334;48.808;9.222;2022-12-29T03:46:13;13.10;1.00
702;DHT22;334;48.808;9.222;2022-12-29T03:47:15;13.10;1.00
702;DHT22;334;48.808;9.222;2022-12-29T03:48:19;13.20;1.00
702;DHT22;334;48.808;9.222;2022-12-29T03:49:21;13.20;1.00
702;DHT22;334;48.808;9.222;2022-12-29T03:50:22;13.20;1.00
702;DHT22;334;48.808;9.222;2022-12-29T03:51:25;13.20;1.00
702;DHT22;334;48.808;9.222;2022-12-29T03:52:27;13.20;1.00
702;DHT22;334;48.808;9.222;2022-12-29T03:53:29;13.20;1.00
702;DHT22;334;48.808;9.222;2022-12-29T03:54:32;13.30;1.00
702;DHT22;334;48.808;9.222;2022-12-29T03:55:34;13.30;1.00
702;DHT22;334;48.808;9.222;2022-12-29T03:56:36;13.30;1.00
702;DHT22;334;48.808;9.222;2022-12-29T03:57:40;13.30;1.00
702;DHT22;334;48.808;9.222;2022-12-29T03:58:42;13.30;1.00
702;DHT22;334;48.808;9.222;2022-12-29T03:59:44;13.30;1.00
702;DHT22;334;48.808;9.222;2022-12-29T04:00:46;13.50;1.00
702;DHT22;334;48.808;9.222;2022-12-29T04:01:47;13.40;1.00
702;DHT22;334;48.808;9.222;2022-12-29T04:02:49;13.40;1.00
702;DHT22;334;48.808;9.222;2022-12-29T04:03:52;13.40;1.00
702;DHT22;334;48.808;9.222;2022-12-29T04:04:53;13.40;1.00
702;DHT22;334;48.808;9.222;2022-12-29T04:05:55;13.40;1.00
702;DHT22;334;48.808;9.222;2022-12-29T04:06:57;13.40;1.00
702;DHT22;334;48.808;9.222;2022-12-29T04:07:59;13.40;1.00
702;DHT22;334;48.808;9.222;2022-12-29T04:09:01;13.40;1.00
702;DHT22;334;48.808;9.222;2022-12-29T04:10:03;13.50;1.00
702;DHT22;334;48.808;9.222;2022-12-29T04:11:05;13.40;1.00
702;DHT22;334;48.808;9.222;2022-12-29T04:12:07;13.50;1.00
702;DHT22;334;48.808;9.222;2022-12-29T04:13:09;13.50;1.00
702;DHT22;334;48.808;9.222;2022-12-29T04:14:11;13.50;1.00
702;DHT22;334;48.808;9.222;2022-12-29T04:15:13;13.50;1.00
702;DHT22;334;48.808;9.222;2022-12-29T04:16:15;13.50;1.00
702;DHT22;334;48.808;9.222;2022-12-29T04:17:17;13.50;1.00
702;DHT22;334;48.808;9.222;2022-12-29T04:18:19;13.50;1.00
702;DHT22;334;48.808;9.222;2022-12-29T04:19:21;13.60;1.00
702;DHT22;334;48.808;9.222;2022-12-29T04:20:22;13.60;1.00
702;DHT22;334;48.808;9.222;2022-12-29T04:21:43;13.60;1.00
702;DHT22;334;48.808;9.222;2022-12-29T04:22:45;13.60;1.00
702;DHT22;334;48.808;9.222;2022-12-29T04:23:47;13.60;1.00
702;DHT22;334;48.808;9.222;2022-12-29T04:24:49;13.60;1.00
702;DHT22;334;48.808;9.222;2022-12-29T04:25:50;13.60;1.00
702;DHT22;334;48.808;9.222;2022-12-29T04:26:52;13.60;1.00
702;DHT22;334;48.808;9.222;2022-12-29T04:27:54;13.60;1.00
702;DHT22;334;48.808;9.222;2022-12-29T04:28:56;13.60;1.00
702;DHT22;334;48.808;9.222;2022-12-29T04:29:58;13.60;1.00
702;DHT22;334;48.808;9.222;2022-12-29T04:30:59;13.60;1.00
702;DHT22;334;48.808;9.222;2022-12-29T04:32:01;13.60;1.00
702;DHT22;334;48.808;9.222;2022-12-29T04:33:03;13.60;1.00
702;DHT22;334;48.808;9.222;2022-12-29T04:34:05;13.60;1.00
702;DHT22;334;48.808;9.222;2022-12-29T04:35:07;13.60;1.00
702;DHT22;334;48.808;9.222;2022-12-29T04:36:09;13.60;1.00
702;DHT22;334;48.808;9.222;2022-12-29T04:37:11;13.60;1.00
702;DHT22;334;48.808;9.222;2022-12-29T04:38:14;13.60;1.00
702;DHT22;334;48.808;9.222;2022-12-29T04:39:15;13.60;1.00
702;DHT22;334;48.808;9.222;2022-12-29T04:40:17;13.60;1.00
702;DHT22;334;48.808;9.222;2022-12-29T04:41:19;13.70;1.00
702;DHT22;334;48.808;9.222;2022-12-29T04:42:21;13.70;1.00
702;DHT22;334;48.808;9.222;2022-12-29T04:43:23;13.70;1.00
702;DHT22;334;48.808;9.222;2022-12-29T04:44:25;13.70;1.00
702;DHT22;334;48.808;9.222;2022-12-29T04:45:27;13.70;1.00
702;DHT22;334;48.808;9.222;2022-12-29T04:46:28;13.70;1.00
702;DHT22;334;48.808;9.222;2022-12-29T04:47:30;13.70;1.00
702;DHT22;334;48.808;9.222;2022-12-29T04:48:32;13.70;1.00
702;DHT22;334;48.808;9.222;2022-12-29T04:49:35;13.70;1.00
702;DHT22;334;48.808;9.222;2022-12-29T04:50:36;13.70;1.00
702;DHT22;334;48.808;9.222;2022-12-29T04:51:38;13.70;1.00
702;DHT22;334;48.808;9.222;2022-12-29T04:52:40;13.70;1.00
702;DHT22;334;48.808;9.222;2022-12-29T04:53:42;13.70;1.00
702;DHT22;334;48.808;9.222;2022-12-29T04:54:43;13.70;1.00
702;DHT22;334;48.808;9.222;2022-12-29T04:55:51;13.70;1.00
702;DHT22;334;48.808;9.222;2022-12-29T04:56:53;13.80;1.00
702;DHT22;334;48.808;9.222;2022-12-29T04:57:55;13.70;1.00
702;DHT22;334;48.808;9.222;2022-12-29T04:58:57;13.80;1.00
702;DHT22;334;48.808;9.222;2022-12-29T04:59:58;13.70;1.00
702;DHT22;334;48.808;9.222;2022-12-29T05:01:00;13.70;1.00
702;DHT22;334;48.808;9.222;2022-12-29T05:02:02;13.80;1.00
702;DHT22;334;48.808;9.222;2022-12-29T05:03:04;13.70;1.00
702;DHT22;334;48.808;9.222;2022-12-29T05:04:06;13.70;1.00
702;DHT22;334;48.808;9.222;2022-12-29T05:05:08;13.70;1.00
702;DHT22;334;48.808;9.222;2022-12-29T05:06:10;13.70;1.00
702;DHT22;334;48.808;9.222;2022-12-29T05:07:13;13.70;1.00
702;DHT22;334;48.808;9.222;2022-12-29T05:08:15;13.60;1.00
702;DHT22;334;48.808;9.222;2022-12-29T05:09:17;13.60;1.00
702;DHT22;334;48.808;9.222;2022-12-29T05:10:19;13.60;1.00
702;DHT22;334;48.808;9.222;2022-12-29T05:11:20;13.60;1.00
702;DHT22;334;48.808;9.222;2022-12-29T05:12:22;13.60;1.00
702;DHT22;334;48.808;9.222;2022-12-29T05:13:24;13.60;1.00
702;DHT22;334;48.808;9.222;2022-12-29T05:14:26;13.60;1.00
702;DHT22;334;48.808;9.222;2022-12-29T05:15:28;13.60;1.00
702;DHT22;334;48.808;9.222;2022-12-29T05:16:29;13.60;1.00
702;DHT22;334;48.808;9.222;2022-12-29T05:17:31;13.60;1.00
702;DHT22;334;48.808;9.222;2022-12-29T05:18:33;13.60;1.00
702;DHT22;334;48.808;9.222;2022-12-29T05:19:35;13.60;1.00
702;DHT22;334;48.808;9.222;2022-12-29T05:20:37;13.60;1.00
702;DHT22;334;48.808;9.222;2022-12-29T05:21:39;13.60;1.00
702;DHT22;334;48.808;9.222;2022-12-29T05:22:41;13.60;1.00
702;DHT22;334;48.808;9.222;2022-12-29T05:23:43;13.60;1.00
702;DHT22;334;48.808;9.222;2022-12-29T05:24:45;13.60;1.00
702;DHT22;334;48.808;9.222;2022-12-29T05:25:46;13.60;1.00
702;DHT22;334;48.808;9.222;2022-12-29T05:26:48;13.60;1.00
702;DHT22;334;48.808;9.222;2022-12-29T05:27:50;13.60;1.00
702;DHT22;334;48.808;9.222;2022-12-29T05:28:52;13.60;1.00
702;DHT22;334;48.808;9.222;2022-12-29T05:29:54;13.60;1.00
702;DHT22;334;48.808;9.222;2022-12-29T05:30:56;13.70;1.00
702;DHT22;334;48.808;9.222;2022-12-29T05:31:57;13.70;1.00
702;DHT22;334;48.808;9.222;2022-12-29T05:32:59;13.70;1.00
702;DHT22;334;48.808;9.222;2022-12-29T05:34:02;13.70;1.00
702;DHT22;334;48.808;9.222;2022-12-29T05:35:04;13.60;1.00
702;DHT22;334;48.808;9.222;2022-12-29T05:36:07;13.60;1.00
702;DHT22;334;48.808;9.222;2022-12-29T05:37:09;13.70;1.00
702;DHT22;334;48.808;9.222;2022-12-29T05:38:11;13.70;1.00
702;DHT22;334;48.808;9.222;2022-12-29T05:39:13;13.70;1.00
702;DHT22;334;48.808;9.222;2022-12-29T05:40:15;13.70;1.00
702;DHT22;334;48.808;9.222;2022-12-29T05:41:17;13.70;1.00
702;DHT22;334;48.808;9.222;2022-12-29T05:42:19;13.90;1.00
702;DHT22;334;48.808;9.222;2022-12-29T05:43:21;13.70;1.00
702;DHT22;334;48.808;9.222;2022-12-29T05:44:23;13.60;1.00
702;DHT22;334;48.808;9.222;2022-12-29T05:45:27;13.60;1.00
702;DHT22;334;48.808;9.222;2022-12-29T05:46:29;13.60;1.00
702;DHT22;334;48.808;9.222;2022-12-29T05:47:31;13.60;1.00
702;DHT22;334;48.808;9.222;2022-12-29T05:48:33;13.60;1.00
702;DHT22;334;48.808;9.222;2022-12-29T05:49:38;13.80;1.00
702;DHT22;334;48.808;9.222;2022-12-29T05:50:40;13.60;1.00
702;DHT22;334;48.808;9.222;2022-12-29T05:51:42;13.60;1.00
702;DHT22;334;48.808;9.222;2022-12-29T05:52:44;13.60;1.00
702;DHT22;334;48.808;9.222;2022-12-29T05:53:46;13.60;1.00
702;DHT22;334;48.808;9.222;2022-12-29T05:54:48;13.60;1.00
702;DHT22;334;48.808;9.222;2022-12-29T05:55:50;13.60;1.00
702;DHT22;334;48.808;9.222;2022-12-29T05:56:52;13.50;1.00
702;DHT22;334;48.808;9.222;2022-12-29T05:57:53;13.60;1.00
702;DHT22;334;48.808;9.222;2022-12-29T05:58:55;13.60;1.00
702;DHT22;334;48.808;9.222;2022-12-29T05:59:57;13.60;1.00
702;DHT22;334;48.808;9.222;2022-12-29T06:00:59;13.60;1.00
702;DHT22;334;48.808;9.222;2022-12-29T06:02:02;13.60;1.00
702;DHT22;334;48.808;9.222;2022-12-29T06:03:04;13.60;1.00
702;DHT22;334;48.808;9.222;2022-12-29T06:04:06;13.60;1.00
702;DHT22;334;48.808;9.222;2022-12-29T06:05:08;13.80;1.00
702;DHT22;334;48.808;9.222;2022-12-29T06:06:11;13.60;1.00
702;DHT22;334;48.808;9.222;2022-12-29T06:07:14;13.60;1.00
702;DHT22;334;48.808;9.222;2022-12-29T06:08:15;13.60;1.00
702;DHT22;334;48.808;9.222;2022-12-29T06:09:17;13.60;1.00
702;DHT22;334;48.808;9.222;2022-12-29T06:10:19;13.60;1.00
702;DHT22;334;48.808;9.222;2022-12-29T06:11:20;13.60;1.00
702;DHT22;334;48.808;9.222;2022-12-29T06:12:24;13.60;1.00
702;DHT22;334;48.808;9.222;2022-12-29T06:13:29;13.60;1.00
702;DHT22;334;48.808;9.222;2022-12-29T06:14:31;13.60;1.00
702;DHT22;334;48.808;9.222;2022-12-29T06:15:33;13.60;1.00
702;DHT22;334;48.808;9.222;2022-12-29T06:16:35;13.70;1.00
702;DHT22;334;48.808;9.222;2022-12-29T06:17:38;13.70;1.00
702;DHT22;334;48.808;9.222;2022-12-29T06:18:40;13.80;1.00
702;DHT22;334;48.808;9.222;2022-12-29T06:19:42;13.60;1.00
702;DHT22;334;48.808;9.222;2022-12-29T06:20:47;13.60;1.00
702;DHT22;334;48.808;9.222;2022-12-29T06:21:49;13.60;1.00
702;DHT22;334;48.808;9.222;2022-12-29T06:22:51;13.70;1.00
702;DHT22;334;48.808;9.222;2022-12-29T06:23:52;13.60;1.00
702;DHT22;334;48.808;9.222;2022-12-29T06:24:55;13.70;1.00
702;DHT22;334;48.808;9.222;2022-12-29T06:26:05;13.70;1.00
702;DHT22;334;48.808;9.222;2022-12-29T06:27:06;13.70;1.00
702;DHT22;334;48.808;9.222;2022-12-29T06:28:08;13.70;1.00
702;DHT22;334;48.808;9.222;2022-12-29T06:29:13;13.70;1.00
702;DHT22;334;48.808;9.222;2022-12-29T06:30:18;13.70;1.00
702;DHT22;334;48.808;9.222;2022-12-29T06:31:20;13.70;1.00
702;DHT22;334;48.808;9.222;2022-12-29T06:32:22;13.70;1.00
702;DHT22;334;48.808;9.222;2022-12-29T06:33:23;13.70;1.00
702;DHT22;334;48.808;9.222;2022-12-29T06:34:26;13.80;1.00
702;DHT22;334;48.808;9.222;2022-12-29T06:35:28;13.80;1.00
702;DHT22;334;48.808;9.222;2022-12-29T06:36:29;13.80;1.00
702;DHT22;334;48.808;9.222;2022-12-29T06:37:32;13.80;1.00
702;DHT22;334;48.808;9.222;2022-12-29T06:38:34;13.80;1.00
702;DHT22;334;48.808;9.222;2022-12-29T06:39:36;13.80;1.00
702;DHT22;334;48.808;9.222;2022-12-29T06:40:39;13.80;1.00
702;DHT22;334;48.808;9.222;2022-12-29T06:41:42;13.80;1.00
702;DHT22;334;48.808;9.222;2022-12-29T06:42:44;13.80;1.00
702;DHT22;334;48.808;9.222;2022-12-29T06:43:47;13.90;1.00
702;DHT22;334;48.808;9.222;2022-12-29T06:44:50;13.80;1.00
702;DHT22;334;48.808;9.222;2022-12-29T06:45:52;13.80;1.00
702;DHT22;334;48.808;9.222;2022-12-29T06:46:54;13.80;1.00
702;DHT22;334;48.808;9.222;2022-12-29T06:47:55;13.80;1.00
702;DHT22;334;48.808;9.222;2022-12-29T06:48:57;13.80;1.00
702;DHT22;334;48.808;9.222;2022-12-29T06:49:59;13.80;1.00
702;DHT22;334;48.808;9.222;2022-12-29T06:51:02;13.70;1.00
702;DHT22;334;48.808;9.222;2022-12-29T06:52:04;13.80;1.00
702;DHT22;334;48.808;9.222;2022-12-29T06:53:13;13.80;1.00
702;DHT22;334;48.808;9.222;2022-12-29T06:54:15;13.80;1.00
702;DHT22;334;48.808;9.222;2022-12-29T06:55:17;13.70;1.00
702;DHT22;334;48.808;9.222;2022-12-29T06:56:19;13.80;1.00
702;DHT22;334;48.808;9.222;2022-12-29T06:57:21;13.70;1.00
702;DHT22;334;48.808;9.222;2022-12-29T06:58:23;13.70;1.00
702;DHT22;334;48.808;9.222;2022-12-29T06:59:25;13.70;1.00
702;DHT22;334;48.808;9.222;2022-12-29T07:00:28;13.80;1.00
702;DHT22;334;48.808;9.222;2022-12-29T07:01:31;13.70;1.00
702;DHT22;334;48.808;9.222;2022-12-29T07:02:33;13.70;1.00
702;DHT22;334;48.808;9.222;2022-12-29T07:03:35;13.90;1.00
702;DHT22;334;48.808;9.222;2022-12-29T07:04:37;13.70;1.00
702;DHT22;334;48.808;9.222;2022-12-29T07:05:38;13.70;1.00
702;DHT22;334;48.808;9.222;2022-12-29T07:06:40;13.70;1.00
702;DHT22;334;48.808;9.222;2022-12-29T07:07:42;13.60;1.00
702;DHT22;334;48.808;9.222;2022-12-29T07:08:44;13.60;1.00
702;DHT22;334;48.808;9.222;2022-12-29T07:09:46;13.60;1.00
702;DHT22;334;48.808;9.222;2022-12-29T07:10:48;13.60;1.00
702;DHT22;334;48.808;9.222;2022-12-29T07:11:50;13.60;1.00
702;DHT22;334;48.808;9.222;2022-12-29T07:12:52;13.60;1.00
702;DHT22;334;48.808;9.222;2022-12-29T07:13:54;13.60;1.00
702;DHT22;334;48.808;9.222;2022-12-29T07:14:57;13.70;1.00
702;DHT22;334;48.808;9.222;2022-12-29T07:15:59;13.60;1.00
702;DHT22;334;48.808;9.222;2022-12-29T07:17:01;13.60;1.00
702;DHT22;334;48.808;9.222;2022-12-29T07:18:03;13.60;1.00
702;DHT22;334;48.808;9.222;2022-12-29T07:19:05;13.60;1.00
702;DHT22;334;48.808;9.222;2022-12-29T07:20:36;13.60;1.00
702;DHT22;334;48.808;9.222;2022-12-29T07:21:38;13.70;1.00
702;DHT22;334;48.808;9.222;2022-12-29T07:22:47;13.50;1.00
702;DHT22;334;48.808;9.222;2022-12-29T07:23:49;13.50;1.00
702;DHT22;334;48.808;9.222;2022-12-29T07:24:52;13.50;1.00
702;DHT22;334;48.808;9.222;2022-12-29T07:26:01;13.50;1.00
702;DHT22;334;48.808;9.222;2022-12-29T07:27:03;13.50;1.00
702;DHT22;334;48.808;9.222;2022-12-29T07:28:05;13.50;1.00
702;DHT22;334;48.808;9.222;2022-12-29T07:29:07;13.50;1.00
702;DHT22;334;48.808;9.222;2022-12-29T07:30:10;13.40;1.00
702;DHT22;334;48.808;9.222;2022-12-29T07:31:16;13.50;1.00
702;DHT22;334;48.808;9.222;2022-12-29T07:32:19;13.50;1.00
702;DHT22;334;48.808;9.222;2022-12-29T07:33:20;13.50;1.00
702;DHT22;334;48.808;9.222;2022-12-29T07:34:22;13.50;1.00
702;DHT22;334;48.808;9.222;2022-12-29T07:35:24;13.50;1.00
702;DHT22;334;48.808;9.222;2022-12-29T07:36:26;13.50;1.00
702;DHT22;334;48.808;9.222;2022-12-29T07:37:35;13.50;1.00
702;DHT22;334;48.808;9.222;2022-12-29T07:38:36;13.50;1.00
702;DHT22;334;48.808;9.222;2022-12-29T07:39:38;13.50;1.00
702;DHT22;334;48.808;9.222;2022-12-29T07:40:40;13.50;1.00
702;DHT22;334;48.808;9.222;2022-12-29T07:41:42;13.50;1.00
702;DHT22;334;48.808;9.222;2022-12-29T07:42:44;13.60;1.00
702;DHT22;334;48.808;9.222;2022-12-29T07:43:49;13.60;1.00
702;DHT22;334;48.808;9.222;2022-12-29T07:44:51;13.60;1.00
702;DHT22;334;48.808;9.222;2022-12-29T07:45:53;13.60;1.00
702;DHT22;334;48.808;9.222;2022-12-29T07:46:56;13.60;1.00
702;DHT22;334;48.808;9.222;2022-12-29T07:47:59;13.60;1.00
702;DHT22;334;48.808;9.222;2022-12-29T07:49:01;13.60;1.00
702;DHT22;334;48.808;9.222;2022-12-29T07:50:04;13.60;1.00
702;DHT22;334;48.808;9.222;2022-12-29T07:51:06;13.60;1.00
702;DHT22;334;48.808;9.222;2022-12-29T07:52:08;13.60;1.00
702;DHT22;334;48.808;9.222;2022-12-29T07:53:10;13.60;1.00
702;DHT22;334;48.808;9.222;2022-12-29T07:54:12;13.60;1.00
702;DHT22;334;48.808;9.222;2022-12-29T07:55:15;13.60;1.00
702;DHT22;334;48.808;9.222;2022-12-29T07:56:19;13.60;1.00
702;DHT22;334;48.808;9.222;2022-12-29T07:57:21;13.60;1.00
702;DHT22;334;48.808;9.222;2022-12-29T07:58:32;13.60;1.00
702;DHT22;334;48.808;9.222;2022-12-29T07:59:34;13.60;1.00